sensor_id;sensor_type;location;lat;lon;timestamp;temperature;humidity
28608;DHT22;15802;45.654;13.804;2022-12-18T00:02:06;5.80;99.90
28608;DHT22;15802;45.654;13.804;2022-12-18T00:04:32;5.80;99.90
28608;DHT22;15802;45.654;13.804;2022-12-18T00:06:57;5.70;99.90
28608;DHT22;15802;45.654;13.804;2022-12-18T00:09:23;5.70;99.90
28608;DHT22;15802;45.654;13.804;2022-12-18T00:11:49;5.70;99.90
28608;DHT22;15802;45.654;13.804;2022-12-18T00:14:15;5.70;99.90
28608;DHT22;15802;45.654;13.804;2022-12-18T00:16:43;5.70;99.90
28608;DHT22;15802;45.654;13.804;2022-12-18T00:19:08;5.70;99.90
28608;DHT22;15802;45.654;13.804;2022-12-18T00:21:35;5.60;99.90
28608;DHT22;15802;45.654;13.804;2022-12-18T00:24:00;5.60;99.90
28608;DHT22;15802;45.654;13.804;2022-12-18T00:26:28;5.70;99.90
28608;DHT22;15802;45.654;13.804;2022-12-18T00:28:54;5.70;99.90
28608;DHT22;15802;45.654;13.804;2022-12-18T00:31:22;5.70;99.90
28608;DHT22;15802;45.654;13.804;2022-12-18T00:33:48;5.70;99.90
28608;DHT22;15802;45.654;13.804;2022-12-18T00:36:15;5.70;99.90
28608;DHT22;15802;45.654;13.804;2022-12-18T00:38:41;5.70;99.90
28608;DHT22;15802;45.654;13.804;2022-12-18T00:41:09;5.60;99.90
28608;DHT22;15802;45.654;13.804;2022-12-18T00:43:35;5.60;99.90
28608;DHT22;15802;45.654;13.804;2022-12-18T00:46:01;5.60;99.90
28608;DHT22;15802;45.654;13.804;2022-12-18T00:48:27;5.50;99.90
28608;DHT22;15802;45.654;13.804;2022-12-18T00:50:52;5.50;99.90
28608;DHT22;15802;45.654;13.804;2022-12-18T00:53:18;5.50;99.90
28608;DHT22;15802;45.654;13.804;2022-12-18T00:55:43;5.50;99.90
28608;DHT22;15802;45.654;13.804;2022-12-18T00:58:09;5.50;99.90
28608;DHT22;15802;45.654;13.804;2022-12-18T01:00:35;5.50;99.90
28608;DHT22;15802;45.654;13.804;2022-12-18T01:03:01;5.50;99.90
28608;DHT22;15802;45.654;13.804;2022-12-18T01:05:27;5.50;99.90
28608;DHT22;15802;45.654;13.804;2022-12-18T01:07:52;5.50;99.90
28608;DHT22;15802;45.654;13.804;2022-12-18T01:10:18;5.50;99.90
28608;DHT22;15802;45.654;13.804;2022-12-18T01:12:44;5.40;99.90
28608;DHT22;15802;45.654;13.804;2022-12-18T01:15:10;5.40;99.90
28608;DHT22;15802;45.654;13.804;2022-12-18T01:17:36;5.40;99.90
28608;DHT22;15802;45.654;13.804;2022-12-18T01:20:02;5.40;99.90
28608;DHT22;15802;45.654;13.804;2022-12-18T01:22:28;5.40;99.90
28608;DHT22;15802;45.654;13.804;2022-12-18T01:24:54;5.40;99.90
28608;DHT22;15802;45.654;13.804;2022-12-18T01:27:20;5.40;99.90
28608;DHT22;15802;45.654;13.804;2022-12-18T01:29:45;5.40;99.90
28608;DHT22;15802;45.654;13.804;2022-12-18T01:32:11;5.30;99.90
28608;DHT22;15802;45.654;13.804;2022-12-18T01:34:37;5.30;99.90
28608;DHT22;15802;45.654;13.804;2022-12-18T01:37:03;5.30;99.90
28608;DHT22;15802;45.654;13.804;2022-12-18T01:39:29;5.30;99.90
28608;DHT22;15802;45.654;13.804;2022-12-18T01:41:54;5.30;99.90
28608;DHT22;15802;45.654;13.804;2022-12-18T01:49:56;5.20;99.90
28608;DHT22;15802;45.654;13.804;2022-12-18T01:52:23;5.10;99.90
28608;DHT22;15802;45.654;13.804;2022-12-18T01:54:49;5.10;99.90
28608;DHT22;15802;45.654;13.804;2022-12-18T01:57:16;5.10;99.90
28608;DHT22;15802;45.654;13.804;2022-12-18T01:59:42;5.10;99.90
28608;DHT22;15802;45.654;13.804;2022-12-18T02:02:10;5.10;99.90
28608;DHT22;15802;45.654;13.804;2022-12-18T02:04:36;5.00;99.90
28608;DHT22;15802;45.654;13.804;2022-12-18T02:07:05;5.00;99.90
28608;DHT22;15802;45.654;13.804;2022-12-18T02:09:35;5.00;99.90
28608;DHT22;15802;45.654;13.804;2022-12-18T02:12:11;5.10;99.90
28608;DHT22;15802;45.654;13.804;2022-12-18T02:17:28;5.10;99.90
28608;DHT22;15802;45.654;13.804;2022-12-18T02:20:08;5.10;99.90
28608;DHT22;15802;45.654;13.804;2022-12-18T02:22:53;5.10;99.90
28608;DHT22;15802;45.654;13.804;2022-12-18T02:25:35;5.00;99.90
28608;DHT22;15802;45.654;13.804;2022-12-18T02:28:04;5.10;99.90
28608;DHT22;15802;45.654;13.804;2022-12-18T02:30:31;5.10;99.90
28608;DHT22;15802;45.654;13.804;2022-12-18T02:32:59;5.10;99.90
28608;DHT22;15802;45.654;13.804;2022-12-18T02:35:27;5.10;99.90
28608;DHT22;15802;45.654;13.804;2022-12-18T02:37:54;5.20;99.90
28608;DHT22;15802;45.654;13.804;2022-12-18T02:40:21;5.10;99.90
28608;DHT22;15802;45.654;13.804;2022-12-18T02:42:47;5.10;99.90
28608;DHT22;15802;45.654;13.804;2022-12-18T02:45:13;5.10;99.90
28608;DHT22;15802;45.654;13.804;2022-12-18T02:47:39;5.10;99.90
28608;DHT22;15802;45.654;13.804;2022-12-18T02:50:11;5.00;99.90
28608;DHT22;15802;45.654;13.804;2022-12-18T02:52:42;5.00;99.90
28608;DHT22;15802;45.654;13.804;2022-12-18T02:55:19;5.00;99.90
28608;DHT22;15802;45.654;13.804;2022-12-18T02:57:50;5.10;99.90
28608;DHT22;15802;45.654;13.804;2022-12-18T03:00:20;5.10;99.90
28608;DHT22;15802;45.654;13.804;2022-12-18T03:02:56;5.10;99.90
28608;DHT22;15802;45.654;13.804;2022-12-18T03:05:24;5.10;99.90
28608;DHT22;15802;45.654;13.804;2022-12-18T03:07:55;5.10;99.90
28608;DHT22;15802;45.654;13.804;2022-12-18T03:10:24;5.10;99.90
28608;DHT22;15802;45.654;13.804;2022-12-18T03:12:52;5.10;99.90
28608;DHT22;15802;45.654;13.804;2022-12-18T03:15:23;5.10;99.90
28608;DHT22;15802;45.654;13.804;2022-12-18T03:17:54;5.00;99.90
28608;DHT22;15802;45.654;13.804;2022-12-18T03:20:21;5.00;99.90
28608;DHT22;15802;45.654;13.804;2022-12-18T03:22:50;5.00;99.90
28608;DHT22;15802;45.654;13.804;2022-12-18T03:25:16;5.00;99.90
28608;DHT22;15802;45.654;13.804;2022-12-18T03:27:46;5.00;99.90
28608;DHT22;15802;45.654;13.804;2022-12-18T03:30:15;5.00;99.90
28608;DHT22;15802;45.654;13.804;2022-12-18T03:32:44;5.00;99.90
28608;DHT22;15802;45.654;13.804;2022-12-18T03:35:13;5.00;99.90
28608;DHT22;15802;45.654;13.804;2022-12-18T03:37:39;5.00;99.90
28608;DHT22;15802;45.654;13.804;2022-12-18T03:40:05;5.00;99.90
28608;DHT22;15802;45.654;13.804;2022-12-18T03:42:33;4.90;99.90
28608;DHT22;15802;45.654;13.804;2022-12-18T03:45:02;4.90;99.90
28608;DHT22;15802;45.654;13.804;2022-12-18T03:47:39;4.90;99.90
28608;DHT22;15802;45.654;13.804;2022-12-18T03:50:11;4.90;99.90
28608;DHT22;15802;45.654;13.804;2022-12-18T03:55:24;4.90;99.90
28608;DHT22;15802;45.654;13.804;2022-12-18T03:57:51;4.90;99.90
28608;DHT22;15802;45.654;13.804;2022-12-18T04:00:17;4.90;99.90
28608;DHT22;15802;45.654;13.804;2022-12-18T04:02:45;4.90;99.90
28608;DHT22;15802;45.654;13.804;2022-12-18T04:05:12;4.90;99.90
28608;DHT22;15802;45.654;13.804;2022-12-18T04:07:38;4.80;99.90
28608;DHT22;15802;45.654;13.804;2022-12-18T04:10:05;4.80;99.90
28608;DHT22;15802;45.654;13.804;2022-12-18T04:12:32;4.80;99.90
28608;DHT22;15802;45.654;13.804;2022-12-18T04:14:57;4.80;99.90
28608;DHT22;15802;45.654;13.804;2022-12-18T04:17:23;4.80;99.90
28608;DHT22;15802;45.654;13.804;2022-12-18T04:19:49;4.80;99.90
28608;DHT22;15802;45.654;13.804;2022-12-18T04:22:15;4.80;99.90
28608;DHT22;15802;45.654;13.804;2022-12-18T04:24:40;4.80;99.90
28608;DHT22;15802;45.654;13.804;2022-12-18T04:27:06;4.90;99.90
28608;DHT22;15802;45.654;13.804;2022-12-18T04:29:32;4.80;99.90
28608;DHT22;15802;45.654;13.804;2022-12-18T04:31:57;4.80;99.90
28608;DHT22;15802;45.654;13.804;2022-12-18T04:34:23;4.80;99.90
28608;DHT22;15802;45.654;13.804;2022-12-18T04:36:49;4.80;99.90
28608;DHT22;15802;45.654;13.804;2022-12-18T04:39:15;4.80;99.90
28608;DHT22;15802;45.654;13.804;2022-12-18T04:41:40;4.80;99.90
28608;DHT22;15802;45.654;13.804;2022-12-18T04:44:06;4.80;99.90
28608;DHT22;15802;45.654;13.804;2022-12-18T04:46:32;4.80;99.90
28608;DHT22;15802;45.654;13.804;2022-12-18T04:48:57;4.70;99.90
28608;DHT22;15802;45.654;13.804;2022-12-18T04:51:23;4.80;99.90
28608;DHT22;15802;45.654;13.804;2022-12-18T04:53:49;4.80;99.90
28608;DHT22;15802;45.654;13.804;2022-12-18T04:56:15;4.80;99.90
28608;DHT22;15802;45.654;13.804;2022-12-18T04:58:41;4.80;99.90
28608;DHT22;15802;45.654;13.804;2022-12-18T05:01:07;4.70;99.90
28608;DHT22;15802;45.654;13.804;2022-12-18T05:03:33;4.70;99.90
28608;DHT22;15802;45.654;13.804;2022-12-18T05:05:59;4.70;99.90
28608;DHT22;15802;45.654;13.804;2022-12-18T05:08:25;4.70;99.90
28608;DHT22;15802;45.654;13.804;2022-12-18T05:10:59;4.70;99.90
28608;DHT22;15802;45.654;13.804;2022-12-18T05:13:25;4.70;99.90
28608;DHT22;15802;45.654;13.804;2022-12-18T05:15:51;4.70;99.90
28608;DHT22;15802;45.654;13.804;2022-12-18T05:18:17;4.70;99.90
28608;DHT22;15802;45.654;13.804;2022-12-18T05:20:43;4.70;99.90
28608;DHT22;15802;45.654;13.804;2022-12-18T05:23:08;4.70;99.90
28608;DHT22;15802;45.654;13.804;2022-12-18T05:25:34;4.70;99.90
28608;DHT22;15802;45.654;13.804;2022-12-18T05:28:02;4.70;99.90
28608;DHT22;15802;45.654;13.804;2022-12-18T05:30:28;4.70;99.90
28608;DHT22;15802;45.654;13.804;2022-12-18T05:32:54;4.70;99.90
28608;DHT22;15802;45.654;13.804;2022-12-18T05:35:19;4.70;99.90
28608;DHT22;15802;45.654;13.804;2022-12-18T05:37:45;4.70;99.90
28608;DHT22;15802;45.654;13.804;2022-12-18T05:40:11;4.70;99.90
28608;DHT22;15802;45.654;13.804;2022-12-18T05:42:37;4.70;99.90
28608;DHT22;15802;45.654;13.804;2022-12-18T05:45:03;4.70;99.90
28608;DHT22;15802;45.654;13.804;2022-12-18T05:47:28;4.70;99.90
28608;DHT22;15802;45.654;13.804;2022-12-18T05:49:54;4.70;99.90
28608;DHT22;15802;45.654;13.804;2022-12-18T05:52:20;4.70;99.90
28608;DHT22;15802;45.654;13.804;2022-12-18T05:54:46;4.70;99.90
28608;DHT22;15802;45.654;13.804;2022-12-18T05:57:13;4.70;99.90
28608;DHT22;15802;45.654;13.804;2022-12-18T05:59:38;4.70;99.90
28608;DHT22;15802;45.654;13.804;2022-12-18T06:02:04;4.70;99.90
28608;DHT22;15802;45.654;13.804;2022-12-18T06:04:30;4.70;99.90
28608;DHT22;15802;45.654;13.804;2022-12-18T06:06:56;4.70;99.90
28608;DHT22;15802;45.654;13.804;2022-12-18T06:09:21;4.70;99.90
28608;DHT22;15802;45.654;13.804;2022-12-18T06:11:47;4.70;99.90
28608;DHT22;15802;45.654;13.804;2022-12-18T06:14:13;4.70;99.90
28608;DHT22;15802;45.654;13.804;2022-12-18T06:16:39;4.60;99.90
28608;DHT22;15802;45.654;13.804;2022-12-18T06:19:05;4.70;99.90
28608;DHT22;15802;45.654;13.804;2022-12-18T06:21:31;4.60;99.90
28608;DHT22;15802;45.654;13.804;2022-12-18T06:23:57;4.60;99.90
28608;DHT22;15802;45.654;13.804;2022-12-18T06:26:23;4.60;99.90
28608;DHT22;15802;45.654;13.804;2022-12-18T06:28:49;4.60;99.90
28608;DHT22;15802;45.654;13.804;2022-12-18T06:31:14;4.60;99.90
28608;DHT22;15802;45.654;13.804;2022-12-18T06:33:40;4.60;99.90
28608;DHT22;15802;45.654;13.804;2022-12-18T06:36:08;4.60;99.90
28608;DHT22;15802;45.654;13.804;2022-12-18T06:38:35;4.60;99.90
28608;DHT22;15802;45.654;13.804;2022-12-18T06:41:06;4.60;99.90
28608;DHT22;15802;45.654;13.804;2022-12-18T06:43:31;4.50;99.90
28608;DHT22;15802;45.654;13.804;2022-12-18T06:45:58;4.50;99.90
28608;DHT22;15802;45.654;13.804;2022-12-18T06:48:24;4.60;99.90
28608;DHT22;15802;45.654;13.804;2022-12-18T06:50:50;4.60;99.90
28608;DHT22;15802;45.654;13.804;2022-12-18T06:53:15;4.60;99.90
28608;DHT22;15802;45.654;13.804;2022-12-18T06:55:41;4.60;99.90
28608;DHT22;15802;45.654;13.804;2022-12-18T06:58:07;4.50;99.90
28608;DHT22;15802;45.654;13.804;2022-12-18T07:00:32;4.50;99.90
28608;DHT22;15802;45.654;13.804;2022-12-18T07:02:58;4.50;99.90
28608;DHT22;15802;45.654;13.804;2022-12-18T07:05:23;4.50;99.90
28608;DHT22;15802;45.654;13.804;2022-12-18T07:07:49;4.50;99.90
28608;DHT22;15802;45.654;13.804;2022-12-18T07:10:15;4.50;99.90
28608;DHT22;15802;45.654;13.804;2022-12-18T07:12:40;4.50;99.90
28608;DHT22;15802;45.654;13.804;2022-12-18T07:15:06;4.50;99.90
28608;DHT22;15802;45.654;13.804;2022-12-18T07:17:32;4.50;99.90
28608;DHT22;15802;45.654;13.804;2022-12-18T07:19:58;4.50;99.90
28608;DHT22;15802;45.654;13.804;2022-12-18T07:22:24;4.60;99.90
28608;DHT22;15802;45.654;13.804;2022-12-18T07:24:50;4.60;99.90
28608;DHT22;15802;45.654;13.804;2022-12-18T07:27:16;4.60;99.90
28608;DHT22;15802;45.654;13.804;2022-12-18T07:29:41;4.60;99.90
28608;DHT22;15802;45.654;13.804;2022-12-18T07:32:07;4.60;99.90
28608;DHT22;15802;45.654;13.804;2022-12-18T07:34:33;4.60;99.90
28608;DHT22;15802;45.654;13.804;2022-12-18T07:36:59;4.60;99.90
28608;DHT22;15802;45.654;13.804;2022-12-18T07:39:25;4.60;99.90
28608;DHT22;15802;45.654;13.804;2022-12-18T07:41:51;4.60;99.90
28608;DHT22;15802;45.654;13.804;2022-12-18T07:44:35;4.60;99.90
28608;DHT22;15802;45.654;13.804;2022-12-18T07:47:01;4.60;99.90
28608;DHT22;15802;45.654;13.804;2022-12-18T07:49:27;4.60;99.90
28608;DHT22;15802;45.654;13.804;2022-12-18T07:51:54;4.70;99.90
28608;DHT22;15802;45.654;13.804;2022-12-18T07:54:20;4.60;99.90
28608;DHT22;15802;45.654;13.804;2022-12-18T07:56:45;4.70;99.90
28608;DHT22;15802;45.654;13.804;2022-12-18T07:59:11;4.70;99.90
28608;DHT22;15802;45.654;13.804;2022-12-18T08:01:37;4.70;99.90
28608;DHT22;15802;45.654;13.804;2022-12-18T08:04:02;4.70;99.90
28608;DHT22;15802;45.654;13.804;2022-12-18T08:06:28;4.70;99.90
28608;DHT22;15802;45.654;13.804;2022-12-18T08:08:54;4.80;99.90
28608;DHT22;15802;45.654;13.804;2022-12-18T08:11:20;4.80;99.90
28608;DHT22;15802;45.654;13.804;2022-12-18T08:13:46;4.80;99.90
28608;DHT22;15802;45.654;13.804;2022-12-18T08:16:11;4.90;99.90
28608;DHT22;15802;45.654;13.804;2022-12-18T08:18:37;4.90;99.90
28608;DHT22;15802;45.654;13.804;2022-12-18T08:21:11;4.90;99.90
28608;DHT22;15802;45.654;13.804;2022-12-18T08:23:37;4.90;99.90
28608;DHT22;15802;45.654;13.804;2022-12-18T08:26:03;4.90;99.90
28608;DHT22;15802;45.654;13.804;2022-12-18T08:28:28;5.00;99.90
28608;DHT22;15802;45.654;13.804;2022-12-18T08:30:54;5.10;99.90
28608;DHT22;15802;45.654;13.804;2022-12-18T08:33:20;5.10;99.90
28608;DHT22;15802;45.654;13.804;2022-12-18T08:35:45;5.10;99.90
28608;DHT22;15802;45.654;13.804;2022-12-18T08:38:11;5.10;99.90
28608;DHT22;15802;45.654;13.804;2022-12-18T08:40:36;5.20;99.90
28608;DHT22;15802;45.654;13.804;2022-12-18T08:43:02;5.20;99.90
28608;DHT22;15802;45.654;13.804;2022-12-18T08:45:46;5.30;99.90
28608;DHT22;15802;45.654;13.804;2022-12-18T08:48:12;5.30;99.90
28608;DHT22;15802;45.654;13.804;2022-12-18T08:50:37;5.40;99.90
28608;DHT22;15802;45.654;13.804;2022-12-18T08:53:03;5.40;99.90
28608;DHT22;15802;45.654;13.804;2022-12-18T08:55:29;5.40;99.90
28608;DHT22;15802;45.654;13.804;2022-12-18T08:57:55;5.50;99.90
28608;DHT22;15802;45.654;13.804;2022-12-18T09:00:20;5.50;99.90
28608;DHT22;15802;45.654;13.804;2022-12-18T09:02:46;5.50;99.90
28608;DHT22;15802;45.654;13.804;2022-12-18T09:05:11;5.50;99.90
28608;DHT22;15802;45.654;13.804;2022-12-18T09:07:37;5.60;99.90
28608;DHT22;15802;45.654;13.804;2022-12-18T09:10:03;5.60;99.90
28608;DHT22;15802;45.654;13.804;2022-12-18T09:12:29;5.60;99.90
28608;DHT22;15802;45.654;13.804;2022-12-18T09:14:54;5.70;99.90
28608;DHT22;15802;45.654;13.804;2022-12-18T09:17:21;5.70;99.90
28608;DHT22;15802;45.654;13.804;2022-12-18T09:19:47;5.70;99.90
28608;DHT22;15802;45.654;13.804;2022-12-18T09:22:13;5.70;99.90
28608;DHT22;15802;45.654;13.804;2022-12-18T09:24:38;5.80;99.90
28608;DHT22;15802;45.654;13.804;2022-12-18T09:27:04;5.80;99.90
28608;DHT22;15802;45.654;13.804;2022-12-18T09:29:30;5.80;99.90
28608;DHT22;15802;45.654;13.804;2022-12-18T09:31:55;5.80;99.90
28608;DHT22;15802;45.654;13.804;2022-12-18T09:34:21;5.90;99.90
28608;DHT22;15802;45.654;13.804;2022-12-18T09:36:47;5.90;99.90
28608;DHT22;15802;45.654;13.804;2022-12-18T09:39:13;5.90;99.90
28608;DHT22;15802;45.654;13.804;2022-12-18T09:41:55;5.90;99.90
28608;DHT22;15802;45.654;13.804;2022-12-18T09:44:23;5.90;99.90
28608;DHT22;15802;45.654;13.804;2022-12-18T09:49:36;6.00;99.90
28608;DHT22;15802;45.654;13.804;2022-12-18T09:52:04;6.10;99.90
28608;DHT22;15802;45.654;13.804;2022-12-18T09:54:35;6.10;99.90
28608;DHT22;15802;45.654;13.804;2022-12-18T09:57:02;6.10;99.90
28608;DHT22;15802;45.654;13.804;2022-12-18T09:59:30;6.20;99.90
28608;DHT22;15802;45.654;13.804;2022-12-18T10:01:57;6.20;99.90
28608;DHT22;15802;45.654;13.804;2022-12-18T10:04:23;6.20;99.90
28608;DHT22;15802;45.654;13.804;2022-12-18T10:06:52;6.20;99.90
28608;DHT22;15802;45.654;13.804;2022-12-18T10:12:07;6.40;99.90
28608;DHT22;15802;45.654;13.804;2022-12-18T10:14:36;6.40;99.90
28608;DHT22;15802;45.654;13.804;2022-12-18T10:17:13;6.50;99.90
28608;DHT22;15802;45.654;13.804;2022-12-18T10:19:43;6.40;99.90
28608;DHT22;15802;45.654;13.804;2022-12-18T10:25:01;6.50;99.90
28608;DHT22;15802;45.654;13.804;2022-12-18T10:27:29;6.60;99.90
28608;DHT22;15802;45.654;13.804;2022-12-18T10:29:55;6.70;99.90
28608;DHT22;15802;45.654;13.804;2022-12-18T10:32:22;6.70;99.90
28608;DHT22;15802;45.654;13.804;2022-12-18T10:34:49;6.70;99.90
28608;DHT22;15802;45.654;13.804;2022-12-18T10:37:16;6.70;99.90
28608;DHT22;15802;45.654;13.804;2022-12-18T10:39:42;6.70;99.90
28608;DHT22;15802;45.654;13.804;2022-12-18T10:42:09;6.80;99.90
28608;DHT22;15802;45.654;13.804;2022-12-18T10:44:36;6.80;99.90
28608;DHT22;15802;45.654;13.804;2022-12-18T10:47:03;6.80;99.90
28608;DHT22;15802;45.654;13.804;2022-12-18T10:49:31;6.80;99.90
28608;DHT22;15802;45.654;13.804;2022-12-18T10:52:05;6.80;99.90
28608;DHT22;15802;45.654;13.804;2022-12-18T10:54:32;6.80;99.90
28608;DHT22;15802;45.654;13.804;2022-12-18T10:59:59;6.70;99.90
28608;DHT22;15802;45.654;13.804;2022-12-18T11:02:27;6.70;99.90
28608;DHT22;15802;45.654;13.804;2022-12-18T11:04:58;6.70;99.90
28608;DHT22;15802;45.654;13.804;2022-12-18T11:07:23;6.80;99.90
28608;DHT22;15802;45.654;13.804;2022-12-18T11:09:59;6.80;99.90
28608;DHT22;15802;45.654;13.804;2022-12-18T11:12:28;6.80;99.90
28608;DHT22;15802;45.654;13.804;2022-12-18T11:14:54;6.80;99.90
28608;DHT22;15802;45.654;13.804;2022-12-18T11:17:21;6.80;99.90
28608;DHT22;15802;45.654;13.804;2022-12-18T11:19:53;6.90;99.90
28608;DHT22;15802;45.654;13.804;2022-12-18T11:22:20;6.80;99.90
28608;DHT22;15802;45.654;13.804;2022-12-18T11:24:52;6.90;99.90
28608;DHT22;15802;45.654;13.804;2022-12-18T11:27:18;7.00;99.90
28608;DHT22;15802;45.654;13.804;2022-12-18T11:29:44;7.00;99.90
28608;DHT22;15802;45.654;13.804;2022-12-18T11:32:29;6.90;99.90
28608;DHT22;15802;45.654;13.804;2022-12-18T11:34:58;7.00;99.90
28608;DHT22;15802;45.654;13.804;2022-12-18T11:37:25;7.00;99.90
28608;DHT22;15802;45.654;13.804;2022-12-18T11:39:56;7.00;99.90
28608;DHT22;15802;45.654;13.804;2022-12-18T11:48:01;7.00;99.90
28608;DHT22;15802;45.654;13.804;2022-12-18T11:50:33;7.00;99.90
28608;DHT22;15802;45.654;13.804;2022-12-18T11:52:59;7.10;99.90
28608;DHT22;15802;45.654;13.804;2022-12-18T11:55:30;7.10;99.90
28608;DHT22;15802;45.654;13.804;2022-12-18T11:58:03;7.10;99.90
28608;DHT22;15802;45.654;13.804;2022-12-18T12:00:29;7.00;99.90
28608;DHT22;15802;45.654;13.804;2022-12-18T12:03:18;6.90;99.90
28608;DHT22;15802;45.654;13.804;2022-12-18T12:05:51;7.00;99.90
28608;DHT22;15802;45.654;13.804;2022-12-18T12:08:26;7.00;99.90
28608;DHT22;15802;45.654;13.804;2022-12-18T12:11:05;7.00;99.90
28608;DHT22;15802;45.654;13.804;2022-12-18T12:13:37;7.00;99.90
28608;DHT22;15802;45.654;13.804;2022-12-18T12:16:13;7.00;99.90
28608;DHT22;15802;45.654;13.804;2022-12-18T12:18:44;7.00;99.90
28608;DHT22;15802;45.654;13.804;2022-12-18T12:21:20;7.00;99.90
28608;DHT22;15802;45.654;13.804;2022-12-18T12:23:54;6.90;99.90
28608;DHT22;15802;45.654;13.804;2022-12-18T12:26:27;6.90;99.90
28608;DHT22;15802;45.654;13.804;2022-12-18T12:28:59;6.90;99.90
28608;DHT22;15802;45.654;13.804;2022-12-18T12:31:53;7.00;99.90
28608;DHT22;15802;45.654;13.804;2022-12-18T12:34:26;7.00;99.90
28608;DHT22;15802;45.654;13.804;2022-12-18T12:36:59;6.90;99.90
28608;DHT22;15802;45.654;13.804;2022-12-18T12:39:29;6.90;99.90
28608;DHT22;15802;45.654;13.804;2022-12-18T12:41:55;6.90;99.90
28608;DHT22;15802;45.654;13.804;2022-12-18T12:44:43;6.90;99.90
28608;DHT22;15802;45.654;13.804;2022-12-18T12:47:13;6.90;99.90
28608;DHT22;15802;45.654;13.804;2022-12-18T12:49:40;6.80;99.90
28608;DHT22;15802;45.654;13.804;2022-12-18T12:54:50;6.70;99.90
28608;DHT22;15802;45.654;13.804;2022-12-18T12:57:20;6.80;99.90
28608;DHT22;15802;45.654;13.804;2022-12-18T12:59:49;6.70;99.90
28608;DHT22;15802;45.654;13.804;2022-12-18T13:02:22;6.80;99.90
28608;DHT22;15802;45.654;13.804;2022-12-18T13:05:03;6.80;99.90
28608;DHT22;15802;45.654;13.804;2022-12-18T13:07:39;6.80;99.90
28608;DHT22;15802;45.654;13.804;2022-12-18T13:10:22;6.80;99.90
28608;DHT22;15802;45.654;13.804;2022-12-18T13:12:52;6.80;99.90
28608;DHT22;15802;45.654;13.804;2022-12-18T13:15:38;6.80;99.90
28608;DHT22;15802;45.654;13.804;2022-12-18T13:18:10;6.80;99.90
28608;DHT22;15802;45.654;13.804;2022-12-18T13:23:32;6.70;99.90
28608;DHT22;15802;45.654;13.804;2022-12-18T13:26:00;6.60;99.90
28608;DHT22;15802;45.654;13.804;2022-12-18T13:28:50;6.60;99.90
28608;DHT22;15802;45.654;13.804;2022-12-18T13:34:20;6.50;99.90
28608;DHT22;15802;45.654;13.804;2022-12-18T13:36:45;6.50;99.90
28608;DHT22;15802;45.654;13.804;2022-12-18T13:47:54;6.30;99.90
28608;DHT22;15802;45.654;13.804;2022-12-18T13:50:23;6.40;99.90
28608;DHT22;15802;45.654;13.804;2022-12-18T13:52:50;6.30;99.90
28608;DHT22;15802;45.654;13.804;2022-12-18T13:55:16;6.30;99.90
28608;DHT22;15802;45.654;13.804;2022-12-18T13:57:44;6.30;99.90
28608;DHT22;15802;45.654;13.804;2022-12-18T14:00:27;6.20;99.90
28608;DHT22;15802;45.654;13.804;2022-12-18T14:02:54;6.20;99.90
28608;DHT22;15802;45.654;13.804;2022-12-18T14:05:24;6.20;99.90
28608;DHT22;15802;45.654;13.804;2022-12-18T14:07:50;6.20;99.90
28608;DHT22;15802;45.654;13.804;2022-12-18T14:10:17;6.10;99.90
28608;DHT22;15802;45.654;13.804;2022-12-18T14:12:47;6.00;99.90
28608;DHT22;15802;45.654;13.804;2022-12-18T14:15:31;6.00;99.90
28608;DHT22;15802;45.654;13.804;2022-12-18T14:20:43;5.90;99.90
28608;DHT22;15802;45.654;13.804;2022-12-18T14:23:43;6.00;99.90
28608;DHT22;15802;45.654;13.804;2022-12-18T14:25:55;5.90;99.90
28608;DHT22;15802;45.654;13.804;2022-12-18T14:28:22;5.80;99.90
28608;DHT22;15802;45.654;13.804;2022-12-18T14:30:50;5.80;99.90
28608;DHT22;15802;45.654;13.804;2022-12-18T14:33:17;5.80;99.90
28608;DHT22;15802;45.654;13.804;2022-12-18T14:36:00;5.70;99.90
28608;DHT22;15802;45.654;13.804;2022-12-18T14:38:31;5.70;99.90
28608;DHT22;15802;45.654;13.804;2022-12-18T14:40:59;5.60;99.90
28608;DHT22;15802;45.654;13.804;2022-12-18T14:43:26;5.60;99.90
28608;DHT22;15802;45.654;13.804;2022-12-18T14:45:52;5.60;99.90
28608;DHT22;15802;45.654;13.804;2022-12-18T14:48:19;5.60;99.90
28608;DHT22;15802;45.654;13.804;2022-12-18T14:50:45;5.50;99.90
28608;DHT22;15802;45.654;13.804;2022-12-18T14:53:21;5.50;99.90
28608;DHT22;15802;45.654;13.804;2022-12-18T14:55:47;5.40;99.90
28608;DHT22;15802;45.654;13.804;2022-12-18T14:58:14;5.50;99.90
28608;DHT22;15802;45.654;13.804;2022-12-18T15:00:41;5.40;99.90
28608;DHT22;15802;45.654;13.804;2022-12-18T15:03:07;5.40;99.90
28608;DHT22;15802;45.654;13.804;2022-12-18T15:05:34;5.40;99.90
28608;DHT22;15802;45.654;13.804;2022-12-18T15:08:00;5.40;99.90
28608;DHT22;15802;45.654;13.804;2022-12-18T15:10:29;5.40;99.90
28608;DHT22;15802;45.654;13.804;2022-12-18T15:15:45;5.20;99.90
28608;DHT22;15802;45.654;13.804;2022-12-18T15:18:12;5.20;99.90
28608;DHT22;15802;45.654;13.804;2022-12-18T15:20:40;5.20;99.90
28608;DHT22;15802;45.654;13.804;2022-12-18T15:25:58;5.20;99.90
28608;DHT22;15802;45.654;13.804;2022-12-18T15:28:26;5.20;99.90
28608;DHT22;15802;45.654;13.804;2022-12-18T15:31:04;5.10;99.90
28608;DHT22;15802;45.654;13.804;2022-12-18T15:33:32;5.00;99.90
28608;DHT22;15802;45.654;13.804;2022-12-18T15:36:01;5.00;99.90
28608;DHT22;15802;45.654;13.804;2022-12-18T15:38:27;5.00;99.90
28608;DHT22;15802;45.654;13.804;2022-12-18T15:40:53;4.90;99.90
28608;DHT22;15802;45.654;13.804;2022-12-18T15:43:21;4.90;99.90
28608;DHT22;15802;45.654;13.804;2022-12-18T15:46:04;4.90;99.90
28608;DHT22;15802;45.654;13.804;2022-12-18T15:48:32;4.80;99.90
28608;DHT22;15802;45.654;13.804;2022-12-18T15:50:57;4.80;99.90
28608;DHT22;15802;45.654;13.804;2022-12-18T15:53:25;4.80;99.90
28608;DHT22;15802;45.654;13.804;2022-12-18T15:55:53;4.80;99.90
28608;DHT22;15802;45.654;13.804;2022-12-18T15:58:37;4.80;99.90
28608;DHT22;15802;45.654;13.804;2022-12-18T16:01:03;4.80;99.90
28608;DHT22;15802;45.654;13.804;2022-12-18T16:03:28;4.80;99.90
28608;DHT22;15802;45.654;13.804;2022-12-18T16:05:54;4.70;99.90
28608;DHT22;15802;45.654;13.804;2022-12-18T16:08:20;4.70;99.90
28608;DHT22;15802;45.654;13.804;2022-12-18T16:10:48;4.70;99.90
28608;DHT22;15802;45.654;13.804;2022-12-18T16:13:15;4.70;99.90
28608;DHT22;15802;45.654;13.804;2022-12-18T16:15:41;4.70;99.90
28608;DHT22;15802;45.654;13.804;2022-12-18T16:18:07;4.70;99.90
28608;DHT22;15802;45.654;13.804;2022-12-18T16:20:33;4.60;99.90
28608;DHT22;15802;45.654;13.804;2022-12-18T16:22:58;4.60;99.90
28608;DHT22;15802;45.654;13.804;2022-12-18T16:25:26;4.70;99.90
28608;DHT22;15802;45.654;13.804;2022-12-18T16:27:52;4.60;99.90
28608;DHT22;15802;45.654;13.804;2022-12-18T16:30:20;4.70;99.90